Time;durP1;ratioP1;P1;durP2;ratioP2;P2;SDS_P1;SDS_P2;PMS_P1;PMS_P2;Temp;Humidity;BMP_temperature;BMP_pressure;BME280_temperature;BME280_humidity;BME280_pressure;Samples;Min_cycle;Max_cycle;Signal;HPM_P1;HPM_P2
2021/10/30 00:00:33;;;;;;;55.58;19.90;;;12.30;92.70;;;;;;5039956;28;20107;-62
2021/10/30 00:02:58;;;;;;;49.42;19.67;;;12.30;92.70;;;;;;5038000;28;20037;-61
2021/10/30 00:05:24;;;;;;;49.67;20.00;;;12.30;92.70;;;;;;5025199;28;20016;-62
2021/10/30 00:07:50;;;;;;;59.03;19.65;;;12.30;92.70;;;;;;5021721;28;20385;-61
2021/10/30 00:10:15;;;;;;;55.65;20.10;;;12.30;92.70;;;;;;5040576;28;20460;-61
2021/10/30 00:12:41;;;;;;;43.25;19.60;;;12.30;92.70;;;;;;5039057;28;20037;-61
2021/10/30 00:15:07;;;;;;;46.50;20.50;;;12.30;92.70;;;;;;5040283;28;20059;-61
2021/10/30 00:17:32;;;;;;;50.22;19.00;;;12.30;92.70;;;;;;5023440;28;20029;-62
2021/10/30 00:19:58;;;;;;;35.70;17.40;;;12.30;92.70;;;;;;5042821;28;20086;-61
2021/10/30 00:22:23;;;;;;;45.65;17.60;;;12.30;92.70;;;;;;5040482;28;20033;-62
2021/10/30 00:24:49;;;;;;;38.45;18.40;;;12.30;92.70;;;;;;5038467;28;20078;-62
2021/10/30 00:27:14;;;;;;;37.20;17.90;;;12.30;92.70;;;;;;5039254;28;20542;-61
2021/10/30 00:29:40;;;;;;;43.05;18.77;;;12.20;92.60;;;;;;5043294;28;20060;-61
2021/10/30 00:32:06;;;;;;;41.08;20.02;;;12.20;92.60;;;;;;5038005;28;20136;-61
2021/10/30 00:34:32;;;;;;;52.08;23.23;;;12.20;92.60;;;;;;5041792;28;20083;-62
2021/10/30 00:36:57;;;;;;;44.40;20.73;;;12.20;92.50;;;;;;5043062;28;20056;-61
2021/10/30 00:39:23;;;;;;;46.90;18.55;;;12.20;92.50;;;;;;5043607;28;20033;-62
2021/10/30 00:41:49;;;;;;;42.67;19.40;;;12.20;92.50;;;;;;5043865;28;20041;-61
2021/10/30 00:44:15;;;;;;;41.33;19.00;;;12.20;92.50;;;;;;5045293;28;20443;-61
2021/10/30 00:46:44;;;;;;;49.17;19.05;;;12.20;92.50;;;;;;5043061;28;20453;-61
2021/10/30 00:49:11;;;;;;;39.38;18.40;;;12.20;92.50;;;;;;5043108;28;20040;-61
2021/10/30 00:51:36;;;;;;;41.22;18.67;;;12.20;92.50;;;;;;5010142;28;20048;-62
2021/10/30 00:54:02;;;;;;;36.30;17.25;;;12.20;92.50;;;;;;5043847;28;20076;-61
2021/10/30 00:56:29;;;;;;;34.75;16.83;;;12.20;92.40;;;;;;5027581;28;20445;-61
2021/10/30 00:58:55;;;;;;;41.15;16.90;;;12.20;92.40;;;;;;5044288;28;20263;-61
2021/10/30 01:01:20;;;;;;;33.78;17.25;;;12.20;92.40;;;;;;5042272;28;20039;-61
2021/10/30 01:03:46;;;;;;;31.77;16.90;;;12.10;92.40;;;;;;5042880;28;20116;-61
2021/10/30 01:06:12;;;;;;;31.02;16.27;;;12.10;92.40;;;;;;5026393;28;20373;-62
2021/10/30 01:08:37;;;;;;;31.60;15.80;;;12.10;92.30;;;;;;5040420;28;20125;-61
2021/10/30 01:11:03;;;;;;;32.72;16.48;;;12.10;92.30;;;;;;5044626;28;20353;-61
2021/10/30 01:13:28;;;;;;;28.63;16.33;;;12.10;92.30;;;;;;5045137;28;20051;-61
2021/10/30 01:15:54;;;;;;;30.02;15.95;;;12.10;92.30;;;;;;5043795;28;20029;-61
2021/10/30 01:18:19;;;;;;;30.70;15.73;;;12.10;92.20;;;;;;5041681;28;20045;-61
2021/10/30 01:20:45;;;;;;;32.55;16.17;;;12.10;92.20;;;;;;5042822;28;20037;-61
2021/10/30 01:23:10;;;;;;;41.13;17.13;;;12.10;92.20;;;;;;5044840;28;20051;-62
2021/10/30 01:25:36;;;;;;;30.88;17.67;;;12.10;92.20;;;;;;5041479;28;20052;-62
2021/10/30 01:28:02;;;;;;;28.17;16.58;;;12.10;92.20;;;;;;5042661;28;20029;-61
2021/10/30 01:30:27;;;;;;;26.90;16.27;;;12.00;92.20;;;;;;5009669;28;20271;-62
2021/10/30 01:32:57;;;;;;;27.35;16.02;;;12.00;92.20;;;;;;5040696;28;20041;-62
2021/10/30 01:35:27;;;;;;;25.30;14.88;;;12.10;92.10;;;;;;5043608;28;20044;-61
2021/10/30 01:37:54;;;;;;;24.85;15.95;;;12.00;92.10;;;;;;5042862;28;20025;-62
2021/10/30 01:40:20;;;;;;;25.95;15.70;;;12.00;92.10;;;;;;5024585;28;20056;-62
2021/10/30 01:42:55;;;;;;;27.20;15.05;;;12.00;92.10;;;;;;5033508;28;20029;-62
2021/10/30 01:45:21;;;;;;;18.67;14.50;;;12.00;92.00;;;;;;5038525;28;20372;-61
2021/10/30 01:47:47;;;;;;;27.83;15.05;;;12.00;92.10;;;;;;5042660;28;20040;-62
2021/10/30 01:50:14;;;;;;;23.10;15.38;;;12.00;92.10;;;;;;5045846;28;20488;-61
2021/10/30 01:52:40;;;;;;;25.20;14.75;;;12.00;92.00;;;;;;5042349;28;20037;-62
2021/10/30 01:55:09;;;;;;;22.35;14.05;;;11.90;92.00;;;;;;5042507;28;20024;-62
2021/10/30 01:57:35;;;;;;;27.35;14.15;;;11.90;92.00;;;;;;5042038;28;20052;-62
2021/10/30 02:00:00;;;;;;;23.40;14.70;;;11.90;92.00;;;;;;5042679;28;20389;-61
2021/10/30 02:02:26;;;;;;;22.98;14.25;;;12.00;92.00;;;;;;5041970;28;20105;-62
2021/10/30 02:04:51;;;;;;;25.52;14.70;;;12.00;92.00;;;;;;5040909;28;20075;-61
2021/10/30 02:07:17;;;;;;;22.65;13.90;;;11.90;91.90;;;;;;5041971;28;20051;-59
2021/10/30 02:09:42;;;;;;;24.17;13.98;;;11.90;91.90;;;;;;5044194;28;20041;-61
2021/10/30 02:12:08;;;;;;;25.70;14.07;;;11.90;91.90;;;;;;5042260;28;20087;-62
2021/10/30 02:14:34;;;;;;;22.27;14.40;;;11.90;91.90;;;;;;5026809;28;20044;-61
2021/10/30 02:16:59;;;;;;;19.55;14.05;;;11.90;92.00;;;;;;5022578;28;20608;-61
2021/10/30 02:19:25;;;;;;;23.33;14.43;;;11.90;91.90;;;;;;5041571;28;20082;-61
2021/10/30 02:21:50;;;;;;;30.20;15.77;;;11.90;91.90;;;;;;5041054;28;20074;-62
2021/10/30 02:24:16;;;;;;;26.75;15.90;;;11.80;91.90;;;;;;5042707;28;20490;-62
2021/10/30 02:26:41;;;;;;;25.00;16.23;;;11.80;91.90;;;;;;5040529;28;20280;-62
2021/10/30 02:29:07;;;;;;;27.15;16.27;;;11.80;92.20;;;;;;5043684;28;20401;-61
2021/10/30 02:31:32;;;;;;;21.27;15.73;;;11.80;91.80;;;;;;5040160;28;20519;-61
2021/10/30 02:33:58;;;;;;;30.63;15.93;;;11.80;91.80;;;;;;5041381;28;20502;-62
2021/10/30 02:36:23;;;;;;;26.23;16.17;;;11.80;91.80;;;;;;5041790;28;20045;-62
2021/10/30 02:38:50;;;;;;;25.85;16.45;;;11.80;91.80;;;;;;5041442;28;20175;-61
2021/10/30 02:41:15;;;;;;;25.08;18.67;;;11.80;91.80;;;;;;5042091;28;20080;-61
2021/10/30 02:43:41;;;;;;;25.98;18.02;;;11.80;91.80;;;;;;5041877;28;20048;-61
2021/10/30 02:46:06;;;;;;;23.20;16.63;;;11.80;91.80;;;;;;5040842;28;20059;-61
2021/10/30 02:48:32;;;;;;;25.88;17.67;;;11.70;91.80;;;;;;5040336;28;20561;-61
2021/10/30 02:50:57;;;;;;;23.23;17.17;;;11.70;91.80;;;;;;5042349;28;20119;-62
2021/10/30 02:53:23;;;;;;;26.27;17.20;;;11.70;91.70;;;;;;5043425;28;20897;-62
2021/10/30 02:55:49;;;;;;;23.15;16.10;;;11.70;91.70;;;;;;5025808;28;20074;-62
2021/10/30 02:58:14;;;;;;;21.88;16.13;;;11.70;91.70;;;;;;5038683;28;20114;-62
2021/10/30 03:00:40;;;;;;;29.02;16.52;;;11.70;91.70;;;;;;5040350;28;20037;-62
2021/10/30 03:03:05;;;;;;;23.08;17.40;;;11.60;91.70;;;;;;5040921;28;20133;-61
2021/10/30 03:05:31;;;;;;;22.50;17.48;;;11.70;91.70;;;;;;5040295;28;20037;-61
2021/10/30 03:07:57;;;;;;;26.02;17.08;;;11.70;91.70;;;;;;5042169;28;20033;-61
2021/10/30 03:10:22;;;;;;;24.52;17.65;;;11.70;91.60;;;;;;5023889;28;20048;-62
2021/10/30 03:12:49;;;;;;;21.08;16.25;;;11.70;91.70;;;;;;5038926;28;20039;-61
2021/10/30 03:15:15;;;;;;;22.38;16.27;;;11.60;91.80;;;;;;5039921;28;20025;-61
2021/10/30 03:17:41;;;;;;;22.65;15.70;;;11.60;91.70;;;;;;5041205;28;20037;-62
2021/10/30 03:20:07;;;;;;;19.20;15.05;;;11.70;91.70;;;;;;5042913;28;20025;-61
2021/10/30 03:22:33;;;;;;;23.42;14.75;;;11.70;91.70;;;;;;5024917;28;20130;-62
2021/10/30 03:24:59;;;;;;;23.45;14.93;;;11.70;91.60;;;;;;5040861;28;20041;-61
2021/10/30 03:27:24;;;;;;;21.20;15.55;;;11.70;91.60;;;;;;5022113;28;20038;-61
2021/10/30 03:29:50;;;;;;;18.38;13.57;;;11.60;91.60;;;;;;5036926;28;20054;-61
2021/10/30 03:32:16;;;;;;;19.52;13.52;;;11.60;91.60;;;;;;5040702;28;20040;-61
2021/10/30 03:34:41;;;;;;;20.15;13.48;;;11.60;91.50;;;;;;5023973;28;20044;-61
2021/10/30 03:37:07;;;;;;;23.70;13.38;;;11.60;91.50;;;;;;5040301;28;20037;-61
2021/10/30 03:39:32;;;;;;;22.85;14.13;;;11.60;91.50;;;;;;5035105;28;20224;-61
2021/10/30 03:41:58;;;;;;;16.08;12.35;;;11.60;91.40;;;;;;5021694;28;20564;-61
2021/10/30 03:44:23;;;;;;;16.30;12.18;;;11.60;91.50;;;;;;5041313;28;20059;-61
2021/10/30 03:46:49;;;;;;;20.98;12.35;;;11.60;91.40;;;;;;5041503;28;20519;-62
2021/10/30 03:49:14;;;;;;;19.70;12.70;;;11.60;91.40;;;;;;5042297;28;20094;-62
2021/10/30 03:51:40;;;;;;;20.98;11.93;;;11.60;91.40;;;;;;5040963;28;20112;-62
2021/10/30 03:54:05;;;;;;;15.10;11.85;;;11.60;91.40;;;;;;5039348;28;20817;-61
2021/10/30 03:56:31;;;;;;;19.83;12.15;;;11.50;91.30;;;;;;5039225;28;20377;-62
2021/10/30 03:58:56;;;;;;;16.52;11.32;;;11.50;91.30;;;;;;5043311;28;20545;-61
2021/10/30 04:01:22;;;;;;;15.20;11.23;;;11.50;91.30;;;;;;5038600;28;20021;-61
2021/10/30 04:03:47;;;;;;;15.93;11.27;;;11.50;91.30;;;;;;5036940;28;20061;-61
2021/10/30 04:06:13;;;;;;;20.35;11.75;;;11.50;91.30;;;;;;5036681;28;20058;-61
2021/10/30 04:08:38;;;;;;;13.90;11.10;;;11.50;91.30;;;;;;5039233;28;20040;-62
2021/10/30 04:11:04;;;;;;;19.80;11.30;;;11.50;91.30;;;;;;5040167;28;20024;-61
2021/10/30 04:13:30;;;;;;;14.45;11.00;;;11.50;91.30;;;;;;5041491;28;20672;-62
2021/10/30 04:15:55;;;;;;;12.75;10.35;;;11.50;91.30;;;;;;5040105;28;20450;-62
2021/10/30 04:18:21;;;;;;;12.90;10.85;;;11.50;91.30;;;;;;5039772;28;20113;-61
2021/10/30 04:20:46;;;;;;;16.20;10.77;;;11.50;91.20;;;;;;5039179;28;20064;-61
2021/10/30 04:23:12;;;;;;;18.05;11.30;;;11.50;91.50;;;;;;5039327;28;20522;-61
2021/10/30 04:25:37;;;;;;;13.75;10.75;;;11.50;91.20;;;;;;5041066;28;20562;-61
2021/10/30 04:28:03;;;;;;;17.95;10.88;;;11.50;91.20;;;;;;5039296;28;20029;-62
2021/10/30 04:30:29;;;;;;;14.27;10.10;;;11.50;91.20;;;;;;5039370;28;20021;-62
2021/10/30 04:32:55;;;;;;;19.98;10.10;;;11.50;91.20;;;;;;5037987;28;20559;-61
2021/10/30 04:35:20;;;;;;;15.02;10.52;;;11.40;91.20;;;;;;5039475;28;20040;-61
2021/10/30 04:37:46;;;;;;;15.02;10.63;;;11.40;91.10;;;;;;5039691;28;20033;-61
2021/10/30 04:40:12;;;;;;;14.80;10.55;;;11.40;91.20;;;;;;5040246;28;20040;-62
2021/10/30 04:42:37;;;;;;;12.70;10.07;;;11.40;91.10;;;;;;5035885;28;20052;-62
2021/10/30 04:45:04;;;;;;;14.40;10.02;;;11.40;91.20;;;;;;5037987;28;20452;-62
2021/10/30 04:47:29;;;;;;;11.85;9.52;;;11.40;91.20;;;;;;5038844;28;20037;-61
2021/10/30 04:49:55;;;;;;;15.18;10.43;;;11.40;91.20;;;;;;5040404;28;20109;-61
2021/10/30 04:52:20;;;;;;;11.57;9.38;;;11.40;91.20;;;;;;5041423;28;20100;-61
2021/10/30 04:54:46;;;;;;;15.48;9.05;;;11.40;91.20;;;;;;5041066;28;20033;-61
2021/10/30 04:57:11;;;;;;;11.65;9.88;;;11.30;91.10;;;;;;5022091;28;20029;-61
2021/10/30 04:59:37;;;;;;;14.80;9.52;;;11.30;91.10;;;;;;5041450;28;20387;-62
2021/10/30 05:02:02;;;;;;;11.93;9.02;;;11.40;91.20;;;;;;5039116;28;20514;-62
2021/10/30 05:04:28;;;;;;;10.82;8.80;;;11.30;91.10;;;;;;5041560;28;20079;-62
2021/10/30 05:06:53;;;;;;;11.80;9.27;;;11.30;91.10;;;;;;5039056;28;20045;-62
2021/10/30 05:09:19;;;;;;;10.68;8.93;;;11.30;91.10;;;;;;5040244;28;20256;-62
2021/10/30 05:11:45;;;;;;;11.77;8.40;;;11.30;91.20;;;;;;5038726;28;20032;-61
2021/10/30 05:14:10;;;;;;;10.40;8.77;;;11.30;91.20;;;;;;5038081;28;20045;-61
2021/10/30 05:16:36;;;;;;;12.40;7.65;;;11.20;91.10;;;;;;5024364;28;20037;-61
2021/10/30 05:19:01;;;;;;;12.13;8.55;;;11.20;91.20;;;;;;5038132;28;20208;-61
2021/10/30 05:21:27;;;;;;;11.77;8.90;;;11.20;91.20;;;;;;5041646;28;20041;-61
2021/10/30 05:23:56;;;;;;;10.38;8.52;;;11.20;91.20;;;;;;5041468;28;20056;-61
2021/10/30 05:26:22;;;;;;;13.15;8.18;;;11.10;91.20;;;;;;5042391;28;20348;-62
2021/10/30 05:28:48;;;;;;;12.02;7.40;;;11.10;91.20;;;;;;5044763;28;20138;-61
2021/10/30 05:31:13;;;;;;;10.15;8.63;;;11.10;91.20;;;;;;5043963;28;20176;-61
2021/10/30 05:33:39;;;;;;;11.05;8.10;;;11.10;91.20;;;;;;5023557;28;20138;-61
2021/10/30 05:36:06;;;;;;;10.30;8.13;;;11.10;91.20;;;;;;5042119;28;20643;-62
2021/10/30 05:38:31;;;;;;;9.75;7.70;;;11.10;91.20;;;;;;5043108;28;20086;-61
2021/10/30 05:40:57;;;;;;;9.00;7.78;;;11.10;91.20;;;;;;5024373;28;20044;-61
2021/10/30 05:43:22;;;;;;;9.68;7.50;;;11.10;91.20;;;;;;5045567;28;20048;-61
2021/10/30 05:45:48;;;;;;;103.03;15.48;;;11.00;91.10;;;;;;5044863;28;20086;-62
2021/10/30 05:48:16;;;;;;;117.93;18.55;;;11.00;91.10;;;;;;5042275;28;20474;-61
2021/10/30 05:50:41;;;;;;;93.15;13.93;;;11.00;91.10;;;;;;5021717;28;20096;-61
2021/10/30 05:53:07;;;;;;;44.92;10.98;;;11.00;91.10;;;;;;5042672;28;20424;-62
2021/10/30 05:55:33;;;;;;;37.45;10.32;;;11.00;91.10;;;;;;5043297;28;20033;-61
2021/10/30 05:57:59;;;;;;;34.45;10.07;;;11.00;91.10;;;;;;5041775;28;20044;-62
2021/10/30 06:00:25;;;;;;;34.00;9.48;;;11.00;91.10;;;;;;5021578;28;20377;-62
2021/10/30 06:02:50;;;;;;;54.28;9.95;;;11.00;91.20;;;;;;5022383;28;20025;-61
2021/10/30 06:05:16;;;;;;;36.00;9.15;;;10.90;91.10;;;;;;5041254;28;20511;-61
2021/10/30 06:07:41;;;;;;;30.08;8.98;;;10.90;91.10;;;;;;5042505;28;20027;-61
2021/10/30 06:10:07;;;;;;;40.15;9.38;;;10.90;91.10;;;;;;5043866;28;20511;-61
2021/10/30 06:12:37;;;;;;;41.72;11.07;;;10.90;91.00;;;;;;5042670;28;20570;-61
2021/10/30 06:15:04;;;;;;;29.40;9.45;;;10.90;91.00;;;;;;5042349;28;20132;-61
2021/10/30 06:17:29;;;;;;;26.35;8.48;;;11.00;91.00;;;;;;5008647;28;20563;-61
2021/10/30 06:19:55;;;;;;;28.55;9.07;;;10.90;90.90;;;;;;5041745;28;20033;-62
2021/10/30 06:22:21;;;;;;;24.67;8.93;;;10.90;91.00;;;;;;5041474;28;20041;-61
2021/10/30 06:24:46;;;;;;;24.73;9.57;;;10.90;91.00;;;;;;5043273;28;20032;-61
2021/10/30 06:27:12;;;;;;;17.92;9.23;;;10.90;90.90;;;;;;5041634;28;20487;-62
2021/10/30 06:29:37;;;;;;;27.00;9.02;;;10.90;91.00;;;;;;5038884;28;20407;-62
2021/10/30 06:32:03;;;;;;;30.40;8.50;;;10.90;91.00;;;;;;5038404;28;20090;-61
2021/10/30 06:34:29;;;;;;;33.10;8.77;;;10.80;91.00;;;;;;5041709;28;20025;-61
2021/10/30 06:36:54;;;;;;;25.65;9.05;;;10.80;91.10;;;;;;5041104;28;20033;-61
2021/10/30 06:39:20;;;;;;;21.77;8.23;;;10.80;91.20;;;;;;5025086;28;20036;-61
2021/10/30 06:41:46;;;;;;;26.05;9.38;;;10.80;91.10;;;;;;5040972;28;20061;-61
2021/10/30 06:44:11;;;;;;;23.35;8.63;;;10.80;91.10;;;;;;5041485;28;20513;-62
2021/10/30 06:46:37;;;;;;;21.77;8.30;;;10.80;91.10;;;;;;5024274;28;20036;-61
2021/10/30 06:49:02;;;;;;;25.65;9.65;;;10.80;91.10;;;;;;5043826;28;20060;-61
2021/10/30 06:51:28;;;;;;;20.58;8.88;;;10.80;91.10;;;;;;5025515;28;20017;-61
2021/10/30 06:53:53;;;;;;;24.90;9.10;;;10.80;91.10;;;;;;5040769;28;20040;-61
2021/10/30 06:56:19;;;;;;;18.55;8.60;;;10.80;91.10;;;;;;5040402;28;20338;-61
2021/10/30 06:58:45;;;;;;;25.52;8.38;;;10.80;91.10;;;;;;5041614;28;20091;-61
2021/10/30 07:01:12;;;;;;;19.15;7.85;;;10.80;91.10;;;;;;5039838;28;20013;-61
2021/10/30 07:03:38;;;;;;;17.08;7.88;;;10.80;91.10;;;;;;5040838;28;20380;-61
2021/10/30 07:06:03;;;;;;;25.38;8.80;;;10.80;91.10;;;;;;5041018;28;20165;-62
2021/10/30 07:08:29;;;;;;;17.00;8.52;;;10.80;91.10;;;;;;5035787;28;20455;-61
2021/10/30 07:10:54;;;;;;;16.90;7.25;;;10.70;91.00;;;;;;5040105;28;20135;-61
2021/10/30 07:13:20;;;;;;;16.75;7.53;;;10.70;91.00;;;;;;5023936;28;20045;-61
2021/10/30 07:15:47;;;;;;;21.77;7.20;;;10.70;91.30;;;;;;5023409;28;20027;-61
2021/10/30 07:18:13;;;;;;;14.52;7.03;;;10.70;91.00;;;;;;5041944;28;20040;-61
2021/10/30 07:20:39;;;;;;;10.77;6.53;;;10.70;90.90;;;;;;5040963;28;20052;-61
2021/10/30 07:23:04;;;;;;;11.20;7.35;;;10.60;90.90;;;;;;5040482;28;20069;-61
2021/10/30 07:25:30;;;;;;;13.32;7.97;;;10.60;90.90;;;;;;5040557;28;20055;-61
2021/10/30 07:27:55;;;;;;;15.15;7.30;;;10.60;90.80;;;;;;5026155;28;20101;-61
2021/10/30 07:30:21;;;;;;;13.10;8.05;;;10.60;90.70;;;;;;5041719;28;20419;-62
2021/10/30 07:32:55;;;;;;;16.15;8.38;;;10.60;90.80;;;;;;5042137;28;20037;-61
2021/10/30 07:35:21;;;;;;;14.43;8.45;;;10.60;90.80;;;;;;5016977;28;20120;-61
2021/10/30 07:37:47;;;;;;;15.20;9.25;;;10.60;90.80;;;;;;5022241;28;20527;-61
2021/10/30 07:40:12;;;;;;;12.38;8.35;;;10.50;90.80;;;;;;5042454;28;20036;-61
2021/10/30 07:42:38;;;;;;;14.00;8.68;;;10.50;90.80;;;;;;5039538;28;20048;-61
2021/10/30 07:45:04;;;;;;;16.70;9.57;;;10.50;90.90;;;;;;5041398;28;20037;-61
2021/10/30 07:47:29;;;;;;;13.57;8.95;;;10.50;90.90;;;;;;5023582;28;20043;-61
2021/10/30 07:49:56;;;;;;;14.32;9.30;;;10.50;90.90;;;;;;5039936;28;20033;-61
2021/10/30 07:52:21;;;;;;;12.45;9.85;;;10.50;91.00;;;;;;5021885;28;20051;-61
2021/10/30 07:54:47;;;;;;;12.88;9.20;;;10.50;90.90;;;;;;5033811;28;20476;-61
2021/10/30 07:57:13;;;;;;;16.67;9.43;;;10.50;90.90;;;;;;5035499;28;20025;-61
2021/10/30 07:59:39;;;;;;;13.05;9.88;;;10.50;90.90;;;;;;5020388;28;20032;-61
2021/10/30 08:02:06;;;;;;;14.05;10.38;;;10.50;90.90;;;;;;5035671;28;20071;-61
2021/10/30 08:04:32;;;;;;;16.48;9.95;;;10.50;91.00;;;;;;5018807;28;20037;-62
2021/10/30 08:06:58;;;;;;;14.23;9.80;;;10.50;90.90;;;;;;5022172;28;20060;-61
2021/10/30 08:09:23;;;;;;;13.85;10.15;;;10.50;91.00;;;;;;5021756;28;20201;-61
2021/10/30 08:11:49;;;;;;;14.52;9.70;;;10.50;91.00;;;;;;5037466;28;20040;-61
2021/10/30 08:14:14;;;;;;;16.52;9.70;;;10.50;91.00;;;;;;5036818;28;20436;-61
2021/10/30 08:16:40;;;;;;;14.30;10.15;;;10.50;91.00;;;;;;5036995;28;20044;-61
2021/10/30 08:19:05;;;;;;;20.95;10.27;;;10.50;91.40;;;;;;5039429;28;20059;-61
2021/10/30 08:21:31;;;;;;;17.77;10.45;;;10.50;91.10;;;;;;5038685;28;20043;-61
2021/10/30 08:23:57;;;;;;;19.75;10.57;;;10.50;91.20;;;;;;5040325;28;20075;-62
2021/10/30 08:26:23;;;;;;;16.65;10.63;;;10.50;91.20;;;;;;5037470;28;20090;-61
2021/10/30 08:28:49;;;;;;;19.80;10.38;;;10.60;91.20;;;;;;5037783;28;20037;-61
2021/10/30 08:31:14;;;;;;;28.92;11.32;;;10.50;91.30;;;;;;5038009;28;20032;-61
2021/10/30 08:33:40;;;;;;;22.92;10.90;;;10.60;91.30;;;;;;5022921;28;20093;-61
2021/10/30 08:36:05;;;;;;;23.20;11.00;;;10.60;91.40;;;;;;5037711;28;20100;-61
2021/10/30 08:38:32;;;;;;;24.92;11.18;;;10.60;91.40;;;;;;5037937;28;20090;-61
2021/10/30 08:40:58;;;;;;;38.53;12.45;;;10.60;91.40;;;;;;5037481;28;20064;-61
2021/10/30 08:43:25;;;;;;;27.30;11.63;;;10.60;91.40;;;;;;5037114;28;20067;-61
2021/10/30 08:45:51;;;;;;;49.60;12.85;;;10.60;91.60;;;;;;5037596;28;20024;-61
2021/10/30 08:48:21;;;;;;;43.72;13.82;;;10.70;91.80;;;;;;5038230;28;20033;-61
2021/10/30 08:50:47;;;;;;;46.20;13.52;;;10.70;91.80;;;;;;5035511;28;20365;-61
2021/10/30 08:53:12;;;;;;;51.10;14.57;;;10.70;91.80;;;;;;5037682;28;20472;-61
2021/10/30 08:55:38;;;;;;;64.10;15.85;;;10.70;91.80;;;;;;5039494;28;20075;-61
2021/10/30 08:58:09;;;;;;;57.85;14.30;;;10.70;91.90;;;;;;5042038;28;20032;-61
2021/10/30 09:01:00;;;;;;;58.67;14.80;;;10.70;91.80;;;;;;5023143;28;20041;-61
2021/10/30 09:03:26;;;;;;;51.45;13.05;;;10.70;91.70;;;;;;5022485;28;20514;-61
2021/10/30 09:05:53;;;;;;;42.83;13.27;;;10.70;91.70;;;;;;5037782;28;20040;-61
2021/10/30 09:08:20;;;;;;;50.95;13.85;;;10.70;91.70;;;;;;5040195;28;20131;-61
2021/10/30 09:11:14;;;;;;;59.72;14.52;;;10.70;91.70;;;;;;5027896;28;20476;-62
2021/10/30 09:13:40;;;;;;;65.18;15.15;;;10.70;91.70;;;;;;5038615;28;20044;-61
2021/10/30 09:16:06;;;;;;;69.15;16.35;;;10.80;91.70;;;;;;5038977;28;20395;-62
2021/10/30 09:18:32;;;;;;;73.18;14.95;;;10.80;91.90;;;;;;5039082;28;20455;-61
2021/10/30 09:21:04;;;;;;;76.22;16.17;;;10.80;91.90;;;;;;5039917;28;20671;-62
2021/10/30 09:23:30;;;;;;;76.75;16.48;;;10.80;91.90;;;;;;5042734;28;20082;-61
2021/10/30 09:26:01;;;;;;;91.45;16.23;;;10.80;91.90;;;;;;5024778;28;20029;-61
2021/10/30 09:28:28;;;;;;;103.40;17.90;;;10.80;92.00;;;;;;5040550;28;20029;-61
2021/10/30 09:31:02;;;;;;;83.07;18.05;;;10.80;92.00;;;;;;5037516;28;20301;-61
2021/10/30 09:33:31;;;;;;;94.30;16.73;;;10.80;92.00;;;;;;5007384;28;20037;-62
2021/10/30 09:36:08;;;;;;;76.90;16.83;;;10.80;92.00;;;;;;5008117;28;20067;-61
2021/10/30 09:38:35;;;;;;;69.22;16.55;;;10.90;91.90;;;;;;5022278;28;20051;-61
2021/10/30 09:41:01;;;;;;;85.07;17.15;;;10.90;91.90;;;;;;5041387;28;20047;-61
2021/10/30 09:43:26;;;;;;;100.85;18.52;;;10.90;91.90;;;;;;5022510;28;20729;-61
2021/10/30 09:45:54;;;;;;;106.28;19.25;;;10.90;92.20;;;;;;5039657;28;20049;-62
2021/10/30 09:48:24;;;;;;;93.88;16.77;;;10.60;92.10;;;;;;5040199;28;20036;-62
2021/10/30 09:50:50;;;;;;;76.65;17.67;;;11.00;91.90;;;;;;5008485;28;20385;-61
2021/10/30 09:53:26;;;;;;;99.15;17.25;;;11.00;91.90;;;;;;5041798;28;20035;-62
2021/10/30 09:55:52;;;;;;;;;;;11.00;91.90;;;;;;5043204;28;20037;-62
2021/10/30 09:58:51;;;;;;;96.50;17.50;;;11.00;92.00;;;;;;5041499;28;19908;-61
2021/10/30 10:01:18;;;;;;;92.07;19.08;;;11.00;91.90;;;;;;5035064;28;20047;-61
2021/10/30 10:03:45;;;;;;;80.05;17.63;;;11.00;91.90;;;;;;5040065;28;20446;-61
2021/10/30 10:06:12;;;;;;;90.53;18.27;;;11.00;91.90;;;;;;5037138;28;20029;-61
2021/10/30 10:08:38;;;;;;;96.47;17.73;;;11.00;92.00;;;;;;5039752;28;20213;-61
2021/10/30 10:11:14;;;;;;;81.80;17.20;;;11.00;92.00;;;;;;5039452;28;20028;-62
2021/10/30 10:13:41;;;;;;;91.78;18.50;;;11.00;92.30;;;;;;5041564;28;20091;-61
2021/10/30 10:16:11;;;;;;;99.13;18.92;;;11.10;92.00;;;;;;5039673;28;20036;-61
2021/10/30 10:18:36;;;;;;;89.05;18.55;;;11.10;92.10;;;;;;5041197;28;20029;-62
2021/10/30 10:21:02;;;;;;;99.80;16.75;;;11.10;92.10;;;;;;5041455;28;20048;-62
2021/10/30 10:23:28;;;;;;;106.78;18.85;;;11.10;92.00;;;;;;5039412;28;20058;-62
2021/10/30 10:25:57;;;;;;;112.07;18.30;;;11.10;92.00;;;;;;5039594;28;20124;-61
2021/10/30 10:28:33;;;;;;;106.82;19.80;;;11.10;91.90;;;;;;5039040;28;20181;-61
2021/10/30 10:30:59;;;;;;;75.82;16.13;;;11.20;92.00;;;;;;5026325;28;20044;-61
2021/10/30 10:33:25;;;;;;;80.78;17.08;;;11.20;92.00;;;;;;5042265;28;20049;-61
2021/10/30 10:36:13;;;;;;;66.63;15.02;;;11.10;91.80;;;;;;5038771;28;20138;-61
2021/10/30 10:38:57;;;;;;;76.22;15.50;;;11.20;91.80;;;;;;5040682;28;20115;-61
2021/10/30 10:41:38;;;;;;;67.75;15.85;;;11.20;91.80;;;;;;5037745;28;20071;-61
2021/10/30 10:44:04;;;;;;;92.05;16.73;;;11.20;91.80;;;;;;5041709;28;20029;-61
2021/10/30 10:46:30;;;;;;;65.88;15.55;;;11.20;91.80;;;;;;5021335;28;20037;-62
2021/10/30 10:49:15;;;;;;;55.67;15.18;;;11.20;91.80;;;;;;5038662;28;20045;-61
2021/10/30 10:51:46;;;;;;;54.78;14.55;;;11.20;91.80;;;;;;5023401;28;20085;-61
2021/10/30 10:54:11;;;;;;;61.60;15.23;;;11.20;91.80;;;;;;5040256;28;20162;-61
2021/10/30 10:56:37;;;;;;;65.28;14.57;;;11.20;91.70;;;;;;5040859;28;20120;-61
2021/10/30 10:59:06;;;;;;;60.53;14.43;;;11.20;91.70;;;;;;5041708;28;20041;-61
2021/10/30 11:01:34;;;;;;;56.28;13.20;;;11.10;91.70;;;;;;5024340;28;20037;-61
2021/10/30 11:04:09;;;;;;;86.15;15.60;;;11.10;91.70;;;;;;5037555;28;20062;-61
2021/10/30 11:06:41;;;;;;;;;;;11.20;91.70;;;;;;5039491;28;20109;-61
2021/10/30 11:09:11;;;;;;;83.25;17.00;;;11.20;91.70;;;;;;5041122;28;19913;-61
2021/10/30 11:11:37;;;;;;;82.30;15.25;;;11.20;91.70;;;;;;5040816;28;20021;-61
2021/10/30 11:14:03;;;;;;;68.10;15.38;;;11.20;91.80;;;;;;5004767;28;20044;-61
2021/10/30 11:16:29;;;;;;;63.45;14.23;;;11.20;91.70;;;;;;5036873;28;20033;-62
2021/10/30 11:19:17;;;;;;;57.42;15.35;;;11.20;91.70;;;;;;5039493;28;20399;-61
2021/10/30 11:21:47;;;;;;;69.70;15.15;;;11.20;91.70;;;;;;5040524;28;20040;-62
2021/10/30 11:24:21;;;;;;;74.18;14.88;;;11.20;91.80;;;;;;5020341;28;20041;-62
2021/10/30 11:27:05;;;;;;;78.00;15.20;;;11.20;91.80;;;;;;5038872;28;20581;-62
2021/10/30 11:29:31;;;;;;;56.03;14.77;;;11.30;91.80;;;;;;5020398;28;20052;-62
2021/10/30 11:31:57;;;;;;;57.47;14.80;;;11.30;91.80;;;;;;5036469;28;20476;-61
2021/10/30 11:34:22;;;;;;;62.25;15.73;;;11.30;91.80;;;;;;5035618;28;20060;-61
2021/10/30 11:36:48;;;;;;;56.65;16.15;;;11.30;92.20;;;;;;5042589;28;20531;-61
2021/10/30 11:39:14;;;;;;;100.30;16.27;;;11.30;91.90;;;;;;5039356;28;20336;-61
2021/10/30 11:41:40;;;;;;;64.80;15.05;;;11.40;92.10;;;;;;5018322;28;20039;-61
2021/10/30 11:44:13;;;;;;;55.95;13.68;;;11.40;92.10;;;;;;5036277;28;20199;-62
2021/10/30 11:46:42;;;;;;;68.25;14.32;;;11.40;91.90;;;;;;5037816;28;20036;-61
2021/10/30 11:49:08;;;;;;;68.38;14.15;;;11.40;91.90;;;;;;5022979;28;20103;-62
2021/10/30 11:51:44;;;;;;;55.75;15.02;;;11.40;91.90;;;;;;5038265;28;20571;-62
2021/10/30 11:54:10;;;;;;;56.38;15.05;;;11.50;91.90;;;;;;5035969;28;20041;-61
2021/10/30 11:56:36;;;;;;;60.28;13.95;;;11.50;92.00;;;;;;5038403;28;20379;-62
2021/10/30 11:59:02;;;;;;;70.68;14.02;;;11.50;91.90;;;;;;5037235;28;20161;-61
2021/10/30 12:01:44;;;;;;;63.90;14.65;;;11.50;91.90;;;;;;5039677;28;20029;-62
2021/10/30 12:04:20;;;;;;;75.45;15.95;;;11.50;91.90;;;;;;5005710;28;20288;-62
2021/10/30 12:06:57;;;;;;;90.47;16.52;;;11.50;91.90;;;;;;5020342;28;20033;-61
2021/10/30 12:09:33;;;;;;;79.10;15.70;;;11.50;92.00;;;;;;5038055;28;20566;-62
2021/10/30 12:12:02;;;;;;;97.55;16.92;;;11.50;92.00;;;;;;5037465;28;20170;-61
2021/10/30 12:14:30;;;;;;;85.25;18.15;;;11.50;92.10;;;;;;5040442;28;20071;-61
2021/10/30 12:17:01;;;;;;;103.15;18.75;;;11.50;92.30;;;;;;5037964;28;20123;-61
2021/10/30 12:19:31;;;;;;;87.95;18.02;;;11.50;92.30;;;;;;5037715;28;20151;-62
2021/10/30 12:22:25;;;;;;;98.72;19.02;;;11.50;92.40;;;;;;5022677;28;20095;-62
2021/10/30 12:25:04;;;;;;;115.70;19.67;;;11.30;92.70;;;;;;5007420;28;20444;-62
2021/10/30 12:27:52;;;;;;;81.03;17.08;;;11.60;92.50;;;;;;5036972;28;20514;-62
2021/10/30 12:30:32;;;;;;;78.13;17.58;;;11.50;92.50;;;;;;5041129;28;20103;-61